Time;durP1;ratioP1;P1;durP2;ratioP2;P2;SDS_P1;SDS_P2;PMS_P1;PMS_P2;Temp;Humidity;BMP_temperature;BMP_pressure;BME280_temperature;BME280_humidity;BME280_pressure;Samples;Min_cycle;Max_cycle;Signal;HPM_P1;HPM_P2
2023/06/08 00:00:05;;;;;;;6.73;6.23;;;20.60;26.80;;;;;;10429336;28;20236;-78
2023/06/08 00:05:12;;;;;;;5.97;5.43;;;20.50;27.00;;;;;;10442471;28;20229;-79
2023/06/08 00:10:16;;;;;;;6.27;5.77;;;20.50;27.30;;;;;;10444625;28;20935;-79
2023/06/08 00:15:19;;;;;;;7.07;6.13;;;20.40;27.00;;;;;;10435010;28;20228;-79
2023/06/08 00:20:24;;;;;;;6.37;5.87;;;20.30;27.20;;;;;;10452476;28;20222;-79
2023/06/08 00:25:27;;;;;;;6.30;5.40;;;20.30;27.70;;;;;;10458233;28;20246;-79
2023/06/08 00:30:30;;;;;;;6.10;5.60;;;20.20;27.30;;;;;;10448359;28;20609;-79
2023/06/08 00:35:35;;;;;;;6.30;5.70;;;20.20;27.40;;;;;;10450301;28;20217;-79
2023/06/08 00:40:38;;;;;;;7.57;6.73;;;20.20;27.90;;;;;;10456143;28;20217;-79
2023/06/08 00:45:41;;;;;;;9.17;8.27;;;20.10;27.40;;;;;;10448065;28;20256;-79
2023/06/08 00:50:47;;;;;;;6.90;6.30;;;20.00;27.40;;;;;;10437630;28;20264;-79
2023/06/08 00:55:52;;;;;;;6.63;6.03;;;20.00;27.90;;;;;;10439342;28;20225;-79
2023/06/08 01:00:59;;;;;;;5.80;5.27;;;20.00;27.70;;;;;;10451583;28;20634;-79
2023/06/08 01:06:08;;;;;;;5.50;5.10;;;19.90;27.60;;;;;;10443313;28;20226;-78
2023/06/08 01:11:19;;;;;;;5.80;5.30;;;19.90;28.00;;;;;;10440321;28;20275;-80
2023/06/08 01:16:28;;;;;;;5.33;4.90;;;19.80;28.10;;;;;;10452833;28;20879;-79
2023/06/08 01:21:47;;;;;;;5.70;5.30;;;19.70;28.00;;;;;;10447329;28;20225;-79
2023/06/08 01:26:57;;;;;;;5.83;5.33;;;19.70;28.60;;;;;;10441444;28;20230;-77
2023/06/08 01:32:01;;;;;;;6.20;5.67;;;19.70;28.10;;;;;;10445455;28;20267;-75
2023/06/08 01:37:12;;;;;;;5.10;4.73;;;19.60;27.80;;;;;;10439206;28;20233;-75
2023/06/08 01:42:20;;;;;;;6.20;5.60;;;19.50;28.20;;;;;;10461242;28;20621;-77
2023/06/08 01:47:29;;;;;;;5.40;4.90;;;19.40;28.50;;;;;;10463443;28;20304;-77
2023/06/08 01:52:33;;;;;;;5.17;4.77;;;19.30;28.90;;;;;;10458642;28;20229;-79
2023/06/08 01:57:37;;;;;;;5.43;4.90;;;19.10;28.00;;;;;;10457663;28;20243;-78
2023/06/08 02:03:19;;;;;;;;;;;;;;;;;;;;;
2023/06/08 02:14:14;;;;;;;6.03;5.47;;;18.90;28.60;;;;;;10453602;28;20223;-74
2023/06/08 02:19:19;;;;;;;5.30;4.90;;;18.80;28.40;;;;;;10436295;28;20248;-74
2023/06/08 02:24:22;;;;;;;5.87;5.37;;;18.70;27.90;;;;;;10436679;28;20328;-74
2023/06/08 02:29:27;;;;;;;5.97;5.47;;;18.60;28.10;;;;;;10438993;28;20324;-74
2023/06/08 02:34:31;;;;;;;5.63;5.13;;;18.50;28.50;;;;;;10441401;28;20290;-74
2023/06/08 02:39:34;;;;;;;6.20;5.70;;;18.40;28.50;;;;;;10445057;28;20244;-74
2023/06/08 02:44:38;;;;;;;6.33;5.83;;;18.40;28.70;;;;;;10438445;28;20225;-74
2023/06/08 02:49:42;;;;;;;7.07;6.47;;;18.30;29.00;;;;;;10440380;28;20228;-74
2023/06/08 02:54:45;;;;;;;6.57;6.00;;;18.00;28.80;;;;;;10435147;28;20249;-73
2023/06/08 02:59:49;;;;;;;6.40;5.90;;;17.80;29.10;;;;;;10442576;28;20234;-74
2023/06/08 03:04:53;;;;;;;5.80;5.40;;;17.70;29.50;;;;;;10436292;28;20229;-74
2023/06/08 03:09:56;;;;;;;6.03;5.43;;;17.70;29.20;;;;;;10451426;28;20233;-73
2023/06/08 03:15:01;;;;;;;6.53;6.00;;;17.70;29.20;;;;;;10443378;28;20303;-74
2023/06/08 03:20:05;;;;;;;6.50;5.93;;;17.70;29.60;;;;;;10442094;28;20592;-74
2023/06/08 03:25:09;;;;;;;6.20;5.63;;;17.70;29.40;;;;;;10452468;28;20237;-74
2023/06/08 03:30:14;;;;;;;5.40;5.00;;;17.70;29.40;;;;;;10441248;28;20313;-73
2023/06/08 03:35:17;;;;;;;6.00;5.60;;;17.70;29.70;;;;;;10441136;28;20267;-74
2023/06/08 03:40:20;;;;;;;6.20;5.70;;;17.70;29.40;;;;;;10433853;28;20307;-74
2023/06/08 03:45:25;;;;;;;6.53;5.77;;;17.70;29.50;;;;;;10432807;28;20339;-74
2023/06/08 03:50:28;;;;;;;6.77;6.17;;;17.60;29.80;;;;;;10442690;28;20235;-75
2023/06/08 03:55:32;;;;;;;6.73;5.90;;;17.50;29.70;;;;;;10427631;28;20319;-75
2023/06/08 04:00:36;;;;;;;6.37;5.87;;;17.40;29.70;;;;;;10434694;28;20793;-74
2023/06/08 04:05:40;;;;;;;6.67;5.90;;;17.30;30.30;;;;;;10434348;28;20226;-74
2023/06/08 04:10:43;;;;;;;6.10;5.60;;;17.20;30.90;;;;;;10435720;28;20256;-74
2023/06/08 04:15:48;;;;;;;6.10;5.60;;;17.30;30.40;;;;;;10437195;28;20282;-74
2023/06/08 04:20:51;;;;;;;6.90;6.27;;;17.30;30.90;;;;;;10440336;28;20221;-74
2023/06/08 04:25:54;;;;;;;7.93;5.80;;;17.30;30.60;;;;;;10434563;28;20224;-73
2023/06/08 04:30:59;;;;;;;6.67;6.17;;;17.30;30.60;;;;;;10438803;28;20220;-74
2023/06/08 04:36:03;;;;;;;5.73;5.33;;;17.40;31.30;;;;;;10451776;23;20938;-74
2023/06/08 04:41:07;;;;;;;6.40;5.80;;;17.40;30.90;;;;;;10417578;28;20225;-74
2023/06/08 04:46:12;;;;;;;6.73;6.23;;;17.50;31.10;;;;;;10418996;28;20233;-74
2023/06/08 04:51:15;;;;;;;5.70;5.20;;;17.50;31.90;;;;;;10424767;28;20320;-74
2023/06/08 04:56:19;;;;;;;6.50;5.90;;;17.60;31.50;;;;;;10421529;28;20238;-74
2023/06/08 05:01:24;;;;;;;7.07;6.47;;;17.70;31.60;;;;;;10419568;28;20711;-74
2023/06/08 05:06:27;;;;;;;7.10;6.50;;;17.80;32.50;;;;;;10420981;28;20864;-74
2023/06/08 05:11:30;;;;;;;7.70;7.10;;;17.80;32.40;;;;;;10424949;28;20316;-74
2023/06/08 05:16:37;;;;;;;7.47;6.87;;;17.90;32.80;;;;;;10421467;28;20577;-74
2023/06/08 05:21:41;;;;;;;7.90;6.93;;;18.00;33.80;;;;;;10419238;28;20275;-74
2023/06/08 05:26:45;;;;;;;7.67;6.93;;;18.10;33.60;;;;;;10421162;28;20229;-74
2023/06/08 05:31:50;;;;;;;7.40;6.90;;;18.20;33.80;;;;;;10420242;28;21016;-74
2023/06/08 05:36:53;;;;;;;7.37;6.77;;;18.40;35.10;;;;;;10420196;28;20229;-74
2023/06/08 05:41:56;;;;;;;7.53;6.93;;;18.50;34.30;;;;;;10417273;28;20240;-75
2023/06/08 05:47:01;;;;;;;7.67;7.10;;;18.70;34.60;;;;;;10416075;28;20256;-75
2023/06/08 05:52:04;;;;;;;7.90;7.30;;;18.90;35.50;;;;;;10418915;28;20236;-74
2023/06/08 05:57:08;;;;;;;7.83;7.23;;;19.00;34.80;;;;;;10414618;28;20783;-75
2023/06/08 06:02:12;;;;;;;7.60;7.00;;;19.30;35.10;;;;;;10417766;28;20232;-74
2023/06/08 06:07:16;;;;;;;8.70;8.10;;;19.40;36.00;;;;;;10413302;28;20233;-75
2023/06/08 06:12:19;;;;;;;8.30;7.67;;;19.50;35.20;;;;;;10415946;28;20231;-75
2023/06/08 06:17:24;;;;;;;8.70;7.70;;;19.70;35.40;;;;;;10421255;28;20340;-75
2023/06/08 06:22:27;;;;;;;7.67;7.07;;;19.80;36.30;;;;;;10417891;28;20279;-75
2023/06/08 06:27:30;;;;;;;7.83;7.23;;;20.00;35.70;;;;;;10410830;28;20233;-75
2023/06/08 06:32:35;;;;;;;7.53;7.03;;;20.20;36.20;;;;;;10415923;28;20217;-75
2023/06/08 06:37:38;;;;;;;8.17;7.47;;;20.40;36.90;;;;;;10419293;28;20237;-75
2023/06/08 06:42:42;;;;;;;7.37;6.87;;;20.60;36.10;;;;;;10408004;28;20828;-76
2023/06/08 06:47:46;;;;;;;7.20;6.70;;;20.80;36.30;;;;;;10412441;28;20928;-76
2023/06/08 06:52:50;;;;;;;7.10;6.50;;;21.00;37.20;;;;;;10420132;28;20312;-75
2023/06/08 06:57:53;;;;;;;7.07;6.47;;;21.20;36.60;;;;;;10418357;28;20222;-75
2023/06/08 07:02:58;;;;;;;6.87;6.33;;;21.40;36.60;;;;;;10420458;28;20214;-75
2023/06/08 07:08:01;;;;;;;4.80;4.50;;;21.60;37.30;;;;;;10421758;28;20286;-75
2023/06/08 07:13:04;;;;;;;5.37;4.97;;;21.80;36.10;;;;;;10415885;28;20222;-75
2023/06/08 07:18:09;;;;;;;4.33;4.03;;;22.10;35.80;;;;;;10415973;28;20225;-75
2023/06/08 07:23:12;;;;;;;4.40;4.00;;;22.40;36.00;;;;;;10423014;28;20222;-76
2023/06/08 07:28:36;;;;;;;4.70;4.30;;;22.60;35.30;;;;;;10415549;28;20312;-77
2023/06/08 07:33:40;;;;;;;4.60;4.30;;;22.90;35.20;;;;;;10422815;28;20255;-77
2023/06/08 07:38:43;;;;;;;4.10;3.80;;;23.20;35.10;;;;;;10421807;28;20231;-77
2023/06/08 07:43:46;;;;;;;3.67;3.47;;;23.40;34.80;;;;;;10426630;28;20221;-75
2023/06/08 07:48:51;;;;;;;4.00;3.70;;;23.60;34.40;;;;;;10420527;28;20273;-77
2023/06/08 07:53:55;;;;;;;3.53;3.33;;;23.90;34.40;;;;;;10426369;28;20243;-77
2023/06/08 07:58:59;;;;;;;4.00;3.70;;;24.10;34.00;;;;;;10428623;28;20282;-77
2023/06/08 08:04:05;;;;;;;3.47;3.27;;;24.40;33.70;;;;;;10435102;28;20233;-74
2023/06/08 08:09:08;;;;;;;4.20;3.90;;;24.60;32.90;;;;;;10416151;28;20607;-74
2023/06/08 08:14:12;;;;;;;3.93;3.70;;;24.80;32.90;;;;;;10426195;28;20229;-75
2023/06/08 08:19:17;;;;;;;3.63;3.43;;;24.90;32.70;;;;;;10421881;28;20260;-76
2023/06/08 08:24:21;;;;;;;4.10;3.80;;;25.10;32.80;;;;;;10448158;28;20239;-75
2023/06/08 08:29:25;;;;;;;4.10;3.80;;;25.20;32.50;;;;;;10420733;28;20613;-77
2023/06/08 08:34:30;;;;;;;4.07;3.80;;;25.30;32.20;;;;;;10413113;28;20229;-75
2023/06/08 08:39:33;;;;;;;4.20;3.80;;;25.50;31.70;;;;;;10419598;28;20264;-76
2023/06/08 08:44:38;;;;;;;3.73;3.53;;;25.70;31.20;;;;;;10419905;28;20234;-75
2023/06/08 08:49:48;;;;;;;3.80;3.57;;;25.90;31.10;;;;;;10423410;28;20235;-74
2023/06/08 08:54:55;;;;;;;4.37;3.80;;;26.10;30.40;;;;;;10446699;28;20286;-74
2023/06/08 09:00:00;;;;;;;3.97;3.77;;;26.40;30.70;;;;;;10442648;28;20308;-74
2023/06/08 09:05:06;;;;;;;3.70;3.50;;;26.50;30.10;;;;;;10443372;28;20221;-75
2023/06/08 09:10:17;;;;;;;4.10;3.70;;;26.60;29.50;;;;;;10442551;28;20326;-76
2023/06/08 09:15:30;;;;;;;4.03;3.73;;;26.80;29.60;;;;;;10443409;28;20240;-76
2023/06/08 09:20:35;;;;;;;4.03;3.73;;;26.90;29.20;;;;;;10442988;28;20290;-76
2023/06/08 09:25:39;;;;;;;3.67;3.47;;;27.10;29.40;;;;;;10442583;28;20315;-76
2023/06/08 09:30:43;;;;;;;4.20;3.80;;;27.20;29.30;;;;;;10442519;28;20233;-76
2023/06/08 09:35:48;;;;;;;4.20;3.87;;;27.40;28.80;;;;;;10441705;28;20243;-76
2023/06/08 09:40:51;;;;;;;4.10;3.80;;;27.60;28.60;;;;;;10442288;28;20233;-76
2023/06/08 09:45:55;;;;;;;3.67;3.37;;;27.70;28.60;;;;;;10444542;28;20233;-76
2023/06/08 09:51:01;;;;;;;3.97;3.67;;;27.90;28.50;;;;;;10442651;28;20232;-76
2023/06/08 09:56:06;;;;;;;4.33;4.03;;;28.00;27.50;;;;;;10482490;28;20225;-76
2023/06/08 10:01:12;;;;;;;3.90;3.63;;;28.10;27.50;;;;;;10482107;28;20236;-76
2023/06/08 10:06:17;;;;;;;3.83;3.53;;;28.00;27.50;;;;;;10482133;28;20255;-76
2023/06/08 10:11:22;;;;;;;3.60;3.40;;;28.00;27.00;;;;;;10483785;28;20323;-76
2023/06/08 10:16:26;;;;;;;4.07;3.87;;;28.00;27.40;;;;;;10483582;28;20724;-76
2023/06/08 10:21:31;;;;;;;4.60;3.60;;;28.00;26.90;;;;;;10484916;28;20234;-76
2023/06/08 10:26:35;;;;;;;3.93;3.63;;;28.00;26.90;;;;;;10489982;28;20978;-76
2023/06/08 10:31:40;;;;;;;3.73;3.47;;;27.90;26.80;;;;;;10489623;28;20242;-76
2023/06/08 10:36:45;;;;;;;3.50;3.30;;;27.90;26.60;;;;;;10489607;28;20243;-76
2023/06/08 10:41:55;;;;;;;3.87;3.63;;;27.90;26.60;;;;;;10489624;28;20224;-76
2023/06/08 10:47:00;;;;;;;3.83;3.37;;;27.90;26.40;;;;;;10489251;28;20720;-76
2023/06/08 10:52:07;;;;;;;3.80;3.47;;;28.10;26.60;;;;;;10481174;28;20224;-76
2023/06/08 10:57:10;;;;;;;3.70;3.50;;;28.20;26.10;;;;;;10488750;28;20232;-76
2023/06/08 11:02:20;;;;;;;3.67;3.40;;;28.30;26.50;;;;;;10488660;28;20715;-76
2023/06/08 11:07:25;;;;;;;3.40;3.20;;;28.50;26.30;;;;;;10488126;28;20228;-76
2023/06/08 11:12:28;;;;;;;3.73;3.53;;;28.70;25.60;;;;;;10488234;28;20259;-76
2023/06/08 11:17:34;;;;;;;4.07;3.87;;;28.90;25.70;;;;;;10487888;28;20259;-76
2023/06/08 11:22:40;;;;;;;3.93;3.73;;;29.00;25.40;;;;;;10487555;28;20220;-76
2023/06/08 11:27:44;;;;;;;4.13;3.77;;;29.10;25.00;;;;;;10487406;28;20605;-76
2023/06/08 11:32:49;;;;;;;3.83;3.60;;;29.30;25.00;;;;;;10486861;28;20267;-76
2023/06/08 11:37:56;;;;;;;4.20;3.90;;;29.40;24.70;;;;;;10488472;28;20228;-75
2023/06/08 11:43:00;;;;;;;4.10;3.80;;;29.50;23.70;;;;;;10486967;28;20223;-75
2023/06/08 11:48:04;;;;;;;3.70;3.50;;;29.50;24.00;;;;;;10486740;28;20550;-75
2023/06/08 11:53:22;;;;;;;3.50;3.20;;;29.40;23.60;;;;;;10486246;28;20318;-75
2023/06/08 11:58:28;;;;;;;4.20;3.90;;;29.40;23.90;;;;;;10486027;28;20712;-75
2023/06/08 12:03:33;;;;;;;3.93;3.70;;;29.40;24.20;;;;;;10485846;28;20238;-75
2023/06/08 12:08:40;;;;;;;3.67;3.40;;;29.40;24.40;;;;;;10485888;28;20769;-75
2023/06/08 12:13:44;;;;;;;3.87;3.57;;;29.40;23.60;;;;;;10446887;28;20320;-75
2023/06/08 12:18:47;;;;;;;3.77;3.57;;;29.50;23.70;;;;;;10443911;28;20263;-75
2023/06/08 12:23:52;;;;;;;3.40;3.20;;;29.60;23.70;;;;;;10443899;28;20252;-75
2023/06/08 12:28:55;;;;;;;4.07;3.67;;;29.70;23.20;;;;;;10443535;28;20228;-75
2023/06/08 12:33:58;;;;;;;3.50;3.30;;;29.70;23.40;;;;;;10443380;28;20229;-75
2023/06/08 12:39:03;;;;;;;4.33;3.20;;;29.80;23.30;;;;;;10443456;28;20221;-75
2023/06/08 12:44:07;;;;;;;3.53;3.33;;;29.90;22.90;;;;;;10442860;28;20224;-75
2023/06/08 12:49:10;;;;;;;3.63;3.43;;;30.00;22.80;;;;;;10443016;28;20231;-75
2023/06/08 12:54:15;;;;;;;3.77;3.30;;;30.10;22.50;;;;;;10442563;28;20243;-75
2023/06/08 12:59:18;;;;;;;3.53;3.33;;;30.10;21.90;;;;;;10442981;28;20221;-75
2023/06/08 13:04:21;;;;;;;3.83;3.33;;;30.10;22.20;;;;;;10442452;28;20232;-75
2023/06/08 13:09:26;;;;;;;3.60;3.30;;;30.20;22.10;;;;;;10439594;28;20232;-75
2023/06/08 13:14:30;;;;;;;3.40;3.20;;;30.30;21.70;;;;;;10400799;28;20729;-75
2023/06/08 13:19:33;;;;;;;3.53;3.33;;;30.30;21.80;;;;;;10437446;28;20318;-75
2023/06/08 13:24:38;;;;;;;3.50;3.20;;;30.50;21.40;;;;;;10441593;28;20602;-75
2023/06/08 13:29:48;;;;;;;3.83;3.53;;;30.50;21.40;;;;;;10441827;28;20257;-75
2023/06/08 13:34:51;;;;;;;4.07;3.77;;;30.50;21.40;;;;;;10414885;28;20234;-77
2023/06/08 13:39:55;;;;;;;3.80;3.50;;;30.50;21.40;;;;;;10420282;28;20220;-77
2023/06/08 13:44:59;;;;;;;3.77;3.57;;;30.40;21.10;;;;;;10433951;28;20222;-76
2023/06/08 13:50:03;;;;;;;3.50;3.30;;;30.30;21.30;;;;;;10415386;28;20235;-77
2023/06/08 13:55:08;;;;;;;3.53;3.23;;;30.20;21.20;;;;;;10423641;28;20807;-77
2023/06/08 14:00:12;;;;;;;3.97;3.33;;;30.20;20.50;;;;;;10423284;28;20224;-76
2023/06/08 14:05:19;;;;;;;3.50;3.20;;;30.20;21.20;;;;;;10418895;28;20624;-76
2023/06/08 14:10:24;;;;;;;5.27;3.37;;;30.20;21.10;;;;;;10410175;28;20312;-76
2023/06/08 14:15:27;;;;;;;3.43;3.23;;;30.30;20.70;;;;;;10415745;28;20225;-76
2023/06/08 14:20:34;;;;;;;3.70;3.40;;;30.40;21.30;;;;;;10409417;28;20231;-75
2023/06/08 14:25:38;;;;;;;3.70;3.40;;;30.50;20.60;;;;;;10411639;28;20225;-76
2023/06/08 14:30:41;;;;;;;4.10;3.70;;;30.60;21.10;;;;;;10411980;28;20248;-75
2023/06/08 14:35:45;;;;;;;3.90;3.57;;;30.50;21.40;;;;;;10411287;28;20233;-76
2023/06/08 14:40:50;;;;;;;4.20;3.90;;;30.30;22.50;;;;;;10412578;28;20279;-76
2023/06/08 14:45:53;;;;;;;3.90;3.60;;;29.90;23.00;;;;;;10413433;28;20331;-75
2023/06/08 14:50:57;;;;;;;4.10;3.80;;;29.60;23.90;;;;;;10409071;28;20234;-76
2023/06/08 14:56:01;;;;;;;3.70;3.40;;;29.30;23.70;;;;;;10411018;28;20229;-76
2023/06/08 15:01:04;;;;;;;3.67;3.47;;;29.20;24.10;;;;;;10412593;28;20229;-76
2023/06/08 15:06:08;;;;;;;3.60;3.40;;;29.20;23.90;;;;;;10413796;28;20240;-75
2023/06/08 15:11:16;;;;;;;3.53;3.33;;;29.30;23.20;;;;;;10419416;28;20725;-76
2023/06/08 15:16:19;;;;;;;3.37;3.17;;;29.30;22.80;;;;;;10424516;28;20299;-76
2023/06/08 15:21:22;;;;;;;3.60;3.40;;;29.30;22.90;;;;;;10422296;28;20233;-75
2023/06/08 15:26:27;;;;;;;3.77;3.47;;;29.30;23.00;;;;;;10419035;28;20229;-75
2023/06/08 15:31:30;;;;;;;3.53;3.33;;;29.40;22.80;;;;;;10421041;28;20698;-75
2023/06/08 15:36:34;;;;;;;3.80;3.50;;;29.60;22.50;;;;;;10472317;28;20232;-74
2023/06/08 15:41:38;;;;;;;5.73;3.87;;;29.70;22.40;;;;;;10414768;28;20233;-76
2023/06/08 15:46:42;;;;;;;3.90;3.60;;;29.70;22.10;;;;;;10416384;28;20240;-76
2023/06/08 15:51:46;;;;;;;3.80;3.57;;;29.70;22.00;;;;;;10428061;28;20904;-76
2023/06/08 15:56:51;;;;;;;3.60;3.40;;;29.50;21.40;;;;;;10437077;28;20229;-76
2023/06/08 16:01:54;;;;;;;4.00;3.70;;;29.40;21.30;;;;;;10428275;28;20709;-77
2023/06/08 16:06:58;;;;;;;5.90;3.17;;;29.30;21.60;;;;;;10435326;28;20236;-77
2023/06/08 16:12:03;;;;;;;3.90;3.60;;;29.20;21.60;;;;;;10421345;28;20218;-75
2023/06/08 16:17:08;;;;;;;3.53;3.30;;;29.10;20.60;;;;;;10423143;28;20259;-75
2023/06/08 16:22:12;;;;;;;3.70;3.50;;;29.00;20.60;;;;;;10435459;28;20721;-75
2023/06/08 16:27:19;;;;;;;3.93;3.63;;;29.00;20.60;;;;;;10432423;28;20228;-75
2023/06/08 16:32:26;;;;;;;5.20;3.50;;;28.80;20.50;;;;;;10426293;28;20805;-75
2023/06/08 16:37:30;;;;;;;8.70;3.97;;;28.70;20.20;;;;;;10427749;28;20228;-75
2023/06/08 16:42:43;;;;;;;3.53;3.33;;;28.60;20.40;;;;;;10422664;28;20232;-78
2023/06/08 16:47:47;;;;;;;4.00;3.70;;;28.50;20.40;;;;;;10437679;28;20228;-75
2023/06/08 16:52:51;;;;;;;3.53;3.33;;;28.40;20.60;;;;;;10417505;28;20234;-76
2023/06/08 16:57:56;;;;;;;3.60;3.30;;;28.30;21.00;;;;;;10417293;28;20231;-74
2023/06/08 17:02:59;;;;;;;3.63;3.43;;;28.20;21.10;;;;;;10415633;28;20230;-76
2023/06/08 17:08:04;;;;;;;3.97;3.77;;;28.10;21.40;;;;;;10425716;28;20232;-77
2023/06/08 17:13:08;;;;;;;3.93;3.63;;;28.00;21.60;;;;;;10418140;28;20251;-76
2023/06/08 17:18:11;;;;;;;3.10;2.90;;;27.90;21.70;;;;;;10418425;28;20224;-76
2023/06/08 17:23:15;;;;;;;3.83;3.53;;;27.90;22.00;;;;;;10419703;28;20740;-75
2023/06/08 17:28:20;;;;;;;3.63;3.43;;;27.90;22.10;;;;;;10419321;28;20236;-76
2023/06/08 17:33:23;;;;;;;4.00;3.70;;;27.80;22.20;;;;;;10412958;28;20233;-76
2023/06/08 17:38:27;;;;;;;4.17;3.77;;;27.80;22.30;;;;;;10416861;28;20234;-76
2023/06/08 17:43:32;;;;;;;4.30;4.00;;;27.70;22.50;;;;;;10416899;28;20315;-76
2023/06/08 17:48:35;;;;;;;4.00;3.70;;;27.70;22.60;;;;;;10412176;28;20259;-77
2023/06/08 17:53:38;;;;;;;4.13;3.80;;;27.60;22.50;;;;;;10416966;28;20226;-76
2023/06/08 17:58:43;;;;;;;4.20;3.90;;;27.60;22.70;;;;;;10414408;28;20743;-76
2023/06/08 18:03:49;;;;;;;4.10;3.80;;;27.60;23.00;;;;;;10418825;28;20224;-76
2023/06/08 18:08:52;;;;;;;3.83;3.57;;;27.50;22.80;;;;;;10416860;28;20795;-76
2023/06/08 18:13:57;;;;;;;4.83;4.43;;;27.40;22.90;;;;;;10413433;28;20225;-76
2023/06/08 18:19:00;;;;;;;5.43;4.93;;;27.30;23.70;;;;;;10414233;28;20707;-76
2023/06/08 18:24:04;;;;;;;5.90;5.40;;;27.00;24.10;;;;;;10414117;28;20267;-75
2023/06/08 18:29:09;;;;;;;6.27;5.50;;;26.60;24.50;;;;;;10409817;28;20308;-76
2023/06/08 18:34:15;;;;;;;6.00;5.50;;;26.10;25.70;;;;;;10407124;28;20284;-75
2023/06/08 18:39:19;;;;;;;5.13;4.73;;;25.60;25.50;;;;;;10412072;28;20231;-76
2023/06/08 18:44:24;;;;;;;4.63;4.33;;;25.20;25.80;;;;;;10423383;28;20282;-76
2023/06/08 18:49:27;;;;;;;3.30;3.10;;;25.00;26.50;;;;;;10422312;28;20650;-76
2023/06/08 18:54:30;;;;;;;2.67;2.47;;;24.70;25.10;;;;;;10435285;28;20308;-77
2023/06/08 18:59:35;;;;;;;2.17;2.07;;;24.40;24.60;;;;;;10436828;28;20236;-78
2023/06/08 19:04:39;;;;;;;2.07;1.90;;;24.20;24.50;;;;;;10431864;28;20256;-76
2023/06/08 19:09:42;;;;;;;1.80;1.70;;;24.00;24.40;;;;;;10429307;28;20296;-76
2023/06/08 19:14:47;;;;;;;1.87;1.70;;;23.80;24.40;;;;;;10441222;28;20952;-78
2023/06/08 19:19:50;;;;;;;2.03;1.90;;;23.60;25.30;;;;;;10452920;28;20247;-80
2023/06/08 19:24:57;;;;;;;2.30;2.20;;;23.40;25.60;;;;;;10441113;28;20235;-81
2023/06/08 19:30:05;;;;;;;2.60;2.40;;;23.10;27.00;;;;;;10445472;28;20225;-82
2023/06/08 19:35:09;;;;;;;3.10;2.80;;;22.90;27.30;;;;;;10445398;28;20231;-80
2023/06/08 19:40:13;;;;;;;2.77;2.57;;;22.50;27.00;;;;;;10447297;28;20225;-82
2023/06/08 19:45:18;;;;;;;3.87;3.20;;;22.10;27.70;;;;;;10437920;28;20249;-81
2023/06/08 19:50:28;;;;;;;3.47;3.17;;;21.80;28.80;;;;;;10447098;28;20233;-82
2023/06/08 19:55:31;;;;;;;3.63;3.33;;;21.60;28.40;;;;;;10439055;28;20320;-82
2023/06/08 20:00:35;;;;;;;3.93;3.63;;;21.50;28.70;;;;;;10443128;28;20260;-82
2023/06/08 20:05:40;;;;;;;3.90;3.60;;;21.40;29.60;;;;;;10432653;28;20240;-81
2023/06/08 20:10:44;;;;;;;3.50;3.20;;;21.40;29.80;;;;;;10440671;28;20261;-81
2023/06/08 20:15:49;;;;;;;3.63;3.33;;;21.40;29.40;;;;;;10445046;28;20241;-81
2023/06/08 20:20:52;;;;;;;2.73;2.53;;;21.50;29.30;;;;;;10435788;28;20223;-80
2023/06/08 20:25:57;;;;;;;2.93;2.73;;;21.50;29.10;;;;;;10439858;28;20724;-81
2023/06/08 20:31:01;;;;;;;3.30;3.10;;;21.50;29.50;;;;;;10440729;28;20336;-82
2023/06/08 20:36:05;;;;;;;2.77;2.57;;;21.40;30.00;;;;;;10459223;28;20217;-82
2023/06/08 20:41:08;;;;;;;2.83;2.63;;;21.10;29.80;;;;;;10452021;28;20247;-82
2023/06/08 20:46:13;;;;;;;2.97;2.77;;;20.90;29.80;;;;;;10446992;28;20237;-82
2023/06/08 20:51:17;;;;;;;3.07;2.70;;;20.70;30.70;;;;;;10442806;28;20228;-83
2023/06/08 20:56:20;;;;;;;2.90;2.70;;;20.60;30.40;;;;;;10444918;28;20235;-82
2023/06/08 21:01:24;;;;;;;3.23;2.60;;;20.50;30.60;;;;;;10438996;28;20289;-82
2023/06/08 21:06:28;;;;;;;3.43;3.03;;;20.40;31.50;;;;;;10443606;28;20229;-82
2023/06/08 21:11:31;;;;;;;3.13;2.83;;;20.30;31.00;;;;;;10439251;28;20221;-82
2023/06/08 21:16:36;;;;;;;4.30;2.60;;;20.20;31.30;;;;;;10446688;28;20646;-81
2023/06/08 21:21:40;;;;;;;2.90;2.70;;;20.20;31.70;;;;;;10450941;28;20286;-81
2023/06/08 21:26:44;;;;;;;7.30;2.53;;;20.20;31.90;;;;;;10452036;28;20284;-81
2023/06/08 21:31:48;;;;;;;2.83;2.63;;;20.30;32.20;;;;;;10452268;28;20221;-81
2023/06/08 21:36:52;;;;;;;2.80;2.60;;;20.50;32.90;;;;;;10448342;28;20524;-81
2023/06/08 21:41:57;;;;;;;2.80;2.60;;;20.60;31.70;;;;;;10444391;28;20247;-81
2023/06/08 21:47:02;;;;;;;3.13;2.60;;;20.70;32.10;;;;;;10465751;28;20248;-81
2023/06/08 21:52:05;;;;;;;2.80;2.60;;;20.70;32.10;;;;;;10447300;28;20686;-81
2023/06/08 21:57:09;;;;;;;3.23;2.90;;;20.80;31.70;;;;;;10417221;28;20238;-81
2023/06/08 22:02:13;;;;;;;3.10;2.80;;;20.80;31.90;;;;;;10422048;28;20257;-81
2023/06/08 22:07:17;;;;;;;3.87;3.17;;;20.90;32.90;;;;;;10444021;28;20229;-81
2023/06/08 22:12:21;;;;;;;3.30;3.00;;;21.00;32.00;;;;;;10445273;28;20688;-81
2023/06/08 22:17:29;;;;;;;3.20;2.90;;;21.00;31.90;;;;;;10483273;28;20242;-81
2023/06/08 22:22:33;;;;;;;3.10;2.80;;;21.10;32.40;;;;;;10505520;28;20224;-81
2023/06/08 22:27:39;;;;;;;2.87;2.67;;;21.10;32.20;;;;;;10472477;28;20224;-82
2023/06/08 22:32:44;;;;;;;3.20;2.90;;;21.20;32.10;;;;;;10441913;28;20865;-81
2023/06/08 22:37:49;;;;;;;4.07;3.13;;;21.20;32.50;;;;;;10475606;28;20763;-81
2023/06/08 22:42:53;;;;;;;2.87;2.67;;;21.10;32.60;;;;;;10487224;28;20225;-81
2023/06/08 22:47:59;;;;;;;4.07;3.03;;;21.10;31.80;;;;;;10451331;28;20228;-81
2023/06/08 22:53:03;;;;;;;3.27;2.87;;;21.00;32.20;;;;;;10480496;28;20251;-81
2023/06/08 22:58:06;;;;;;;3.00;2.80;;;20.90;31.60;;;;;;10446760;28;20225;-81
2023/06/08 23:03:11;;;;;;;3.20;2.97;;;20.90;32.00;;;;;;10453378;28;20241;-81
2023/06/08 23:08:14;;;;;;;2.57;2.37;;;20.80;32.60;;;;;;10440108;28;20236;-81
2023/06/08 23:13:19;;;;;;;3.00;2.70;;;20.70;31.90;;;;;;10494791;28;20216;-81
2023/06/08 23:18:30;;;;;;;3.17;2.90;;;20.70;31.90;;;;;;10493399;28;20250;-81
2023/06/08 23:23:34;;;;;;;2.90;2.70;;;20.70;32.80;;;;;;10487333;28;20216;-81
2023/06/08 23:28:37;;;;;;;2.93;2.73;;;20.70;31.90;;;;;;10445646;28;20225;-81
2023/06/08 23:33:42;;;;;;;3.27;2.97;;;20.60;32.00;;;;;;10448825;28;20264;-81
2023/06/08 23:38:46;;;;;;;2.90;2.70;;;20.50;32.50;;;;;;10434331;28;20221;-81
2023/06/08 23:43:49;;;;;;;3.37;3.17;;;20.20;32.20;;;;;;10438569;28;20495;-81
2023/06/08 23:48:54;;;;;;;3.40;3.10;;;19.90;32.60;;;;;;10444716;28;20248;-81
2023/06/08 23:53:57;;;;;;;3.60;3.30;;;19.60;33.90;;;;;;10440125;28;20332;-81
2023/06/08 23:59:00;;;;;;;4.53;3.27;;;19.30;33.80;;;;;;10437384;28;20308;-81
